sensor_id;sensor_type;location;lat;lon;timestamp;P1;durP1;ratioP1;P2;durP2;ratioP2
69569;SDS011;56781;42.292;23.146;2022-08-30T00:02:19;13.20;;;6.70;;
69569;SDS011;56781;42.292;23.146;2022-08-30T00:04:46;12.07;;;7.28;;
69569;SDS011;56781;42.292;23.146;2022-08-30T00:07:13;11.37;;;6.37;;
69569;SDS011;56781;42.292;23.146;2022-08-30T00:09:41;12.35;;;7.15;;
69569;SDS011;56781;42.292;23.146;2022-08-30T00:12:08;16.27;;;7.20;;
69569;SDS011;56781;42.292;23.146;2022-08-30T00:14:35;13.80;;;7.65;;
69569;SDS011;56781;42.292;23.146;2022-08-30T00:17:03;15.48;;;8.15;;
69569;SDS011;56781;42.292;23.146;2022-08-30T00:19:30;13.67;;;8.03;;
69569;SDS011;56781;42.292;23.146;2022-08-30T00:21:57;13.48;;;7.80;;
69569;SDS011;56781;42.292;23.146;2022-08-30T00:24:24;12.63;;;7.60;;
69569;SDS011;56781;42.292;23.146;2022-08-30T00:26:51;12.60;;;6.63;;
69569;SDS011;56781;42.292;23.146;2022-08-30T00:29:18;12.15;;;7.63;;
69569;SDS011;56781;42.292;23.146;2022-08-30T00:31:46;13.13;;;7.40;;
69569;SDS011;56781;42.292;23.146;2022-08-30T00:34:13;13.57;;;7.60;;
69569;SDS011;56781;42.292;23.146;2022-08-30T00:36:42;17.48;;;8.55;;
69569;SDS011;56781;42.292;23.146;2022-08-30T00:39:10;13.63;;;7.93;;
69569;SDS011;56781;42.292;23.146;2022-08-30T00:41:37;15.05;;;8.40;;
69569;SDS011;56781;42.292;23.146;2022-08-30T00:44:04;13.07;;;7.23;;
69569;SDS011;56781;42.292;23.146;2022-08-30T00:46:33;16.45;;;8.43;;
69569;SDS011;56781;42.292;23.146;2022-08-30T00:49:02;18.23;;;8.70;;
69569;SDS011;56781;42.292;23.146;2022-08-30T00:51:32;14.93;;;8.05;;
69569;SDS011;56781;42.292;23.146;2022-08-30T00:53:59;15.25;;;7.65;;
69569;SDS011;56781;42.292;23.146;2022-08-30T00:56:27;13.23;;;7.73;;
69569;SDS011;56781;42.292;23.146;2022-08-30T00:58:57;14.73;;;8.60;;
69569;SDS011;56781;42.292;23.146;2022-08-30T01:01:26;15.63;;;8.57;;
69569;SDS011;56781;42.292;23.146;2022-08-30T01:03:57;17.27;;;9.10;;
69569;SDS011;56781;42.292;23.146;2022-08-30T01:06:27;16.90;;;9.20;;
69569;SDS011;56781;42.292;23.146;2022-08-30T01:08:58;15.47;;;8.87;;
69569;SDS011;56781;42.292;23.146;2022-08-30T01:11:27;14.98;;;8.40;;
69569;SDS011;56781;42.292;23.146;2022-08-30T01:13:57;16.85;;;8.88;;
69569;SDS011;56781;42.292;23.146;2022-08-30T01:16:24;14.07;;;7.85;;
69569;SDS011;56781;42.292;23.146;2022-08-30T01:18:55;14.60;;;8.73;;
69569;SDS011;56781;42.292;23.146;2022-08-30T01:24:11;16.42;;;8.32;;
69569;SDS011;56781;42.292;23.146;2022-08-30T01:26:39;15.52;;;8.40;;
69569;SDS011;56781;42.292;23.146;2022-08-30T01:29:08;17.15;;;8.27;;
69569;SDS011;56781;42.292;23.146;2022-08-30T01:31:43;14.73;;;8.70;;
69569;SDS011;56781;42.292;23.146;2022-08-30T01:34:10;15.70;;;8.10;;
69569;SDS011;56781;42.292;23.146;2022-08-30T01:36:39;17.25;;;8.45;;
69569;SDS011;56781;42.292;23.146;2022-08-30T01:39:11;16.77;;;9.10;;
69569;SDS011;56781;42.292;23.146;2022-08-30T01:41:40;14.77;;;8.45;;
69569;SDS011;56781;42.292;23.146;2022-08-30T01:44:09;14.07;;;8.60;;
69569;SDS011;56781;42.292;23.146;2022-08-30T01:46:40;17.53;;;8.83;;
69569;SDS011;56781;42.292;23.146;2022-08-30T01:49:12;16.85;;;8.80;;
69569;SDS011;56781;42.292;23.146;2022-08-30T01:51:42;14.95;;;8.50;;
69569;SDS011;56781;42.292;23.146;2022-08-30T01:54:09;14.23;;;8.00;;
69569;SDS011;56781;42.292;23.146;2022-08-30T01:56:36;19.08;;;9.32;;
69569;SDS011;56781;42.292;23.146;2022-08-30T01:59:04;15.83;;;8.40;;
69569;SDS011;56781;42.292;23.146;2022-08-30T02:01:32;19.55;;;9.50;;
69569;SDS011;56781;42.292;23.146;2022-08-30T02:04:02;16.77;;;9.43;;
69569;SDS011;56781;42.292;23.146;2022-08-30T02:06:30;40.72;;;12.77;;
69569;SDS011;56781;42.292;23.146;2022-08-30T02:08:57;18.02;;;8.85;;
69569;SDS011;56781;42.292;23.146;2022-08-30T02:11:25;15.77;;;8.83;;
69569;SDS011;56781;42.292;23.146;2022-08-30T02:13:53;14.00;;;8.27;;
69569;SDS011;56781;42.292;23.146;2022-08-30T02:16:20;14.88;;;8.40;;
69569;SDS011;56781;42.292;23.146;2022-08-30T02:18:50;15.98;;;8.85;;
69569;SDS011;56781;42.292;23.146;2022-08-30T02:21:18;15.15;;;8.57;;
69569;SDS011;56781;42.292;23.146;2022-08-30T02:23:46;13.30;;;8.10;;
69569;SDS011;56781;42.292;23.146;2022-08-30T02:26:13;14.20;;;8.35;;
69569;SDS011;56781;42.292;23.146;2022-08-30T02:28:40;15.63;;;8.32;;
69569;SDS011;56781;42.292;23.146;2022-08-30T02:31:15;12.40;;;7.10;;
69569;SDS011;56781;42.292;23.146;2022-08-30T02:33:47;13.23;;;7.97;;
69569;SDS011;56781;42.292;23.146;2022-08-30T02:36:16;14.80;;;8.33;;
69569;SDS011;56781;42.292;23.146;2022-08-30T02:38:46;14.80;;;8.07;;
69569;SDS011;56781;42.292;23.146;2022-08-30T02:41:14;14.38;;;8.20;;
69569;SDS011;56781;42.292;23.146;2022-08-30T02:43:42;13.70;;;7.97;;
69569;SDS011;56781;42.292;23.146;2022-08-30T02:46:09;16.38;;;7.93;;
69569;SDS011;56781;42.292;23.146;2022-08-30T02:48:36;14.03;;;7.60;;
69569;SDS011;56781;42.292;23.146;2022-08-30T02:51:05;15.25;;;8.57;;
69569;SDS011;56781;42.292;23.146;2022-08-30T02:53:37;17.00;;;8.00;;
69569;SDS011;56781;42.292;23.146;2022-08-30T02:56:05;14.95;;;8.85;;
69569;SDS011;56781;42.292;23.146;2022-08-30T02:58:33;15.35;;;8.45;;
69569;SDS011;56781;42.292;23.146;2022-08-30T03:01:00;15.97;;;8.30;;
69569;SDS011;56781;42.292;23.146;2022-08-30T03:03:28;14.75;;;8.27;;
69569;SDS011;56781;42.292;23.146;2022-08-30T03:05:55;13.35;;;8.15;;
69569;SDS011;56781;42.292;23.146;2022-08-30T03:08:22;13.73;;;8.07;;
69569;SDS011;56781;42.292;23.146;2022-08-30T03:10:50;13.60;;;8.15;;
69569;SDS011;56781;42.292;23.146;2022-08-30T03:13:17;13.83;;;6.93;;
69569;SDS011;56781;42.292;23.146;2022-08-30T03:15:44;11.80;;;6.95;;
69569;SDS011;56781;42.292;23.146;2022-08-30T03:18:13;15.15;;;7.95;;
69569;SDS011;56781;42.292;23.146;2022-08-30T03:20:40;14.60;;;8.38;;
69569;SDS011;56781;42.292;23.146;2022-08-30T03:23:19;12.98;;;7.20;;
69569;SDS011;56781;42.292;23.146;2022-08-30T03:25:47;13.07;;;6.77;;
69569;SDS011;56781;42.292;23.146;2022-08-30T03:28:14;14.00;;;7.63;;
69569;SDS011;56781;42.292;23.146;2022-08-30T03:30:41;12.88;;;6.93;;
69569;SDS011;56781;42.292;23.146;2022-08-30T03:33:08;12.02;;;6.85;;
69569;SDS011;56781;42.292;23.146;2022-08-30T03:35:36;15.60;;;7.40;;
69569;SDS011;56781;42.292;23.146;2022-08-30T03:38:03;11.50;;;6.73;;
69569;SDS011;56781;42.292;23.146;2022-08-30T03:40:31;12.05;;;7.05;;
69569;SDS011;56781;42.292;23.146;2022-08-30T03:42:58;15.68;;;7.65;;
69569;SDS011;56781;42.292;23.146;2022-08-30T03:45:25;12.50;;;7.00;;
69569;SDS011;56781;42.292;23.146;2022-08-30T03:47:53;15.77;;;7.07;;
69569;SDS011;56781;42.292;23.146;2022-08-30T03:50:20;14.97;;;8.07;;
69569;SDS011;56781;42.292;23.146;2022-08-30T03:52:47;14.25;;;7.50;;
69569;SDS011;56781;42.292;23.146;2022-08-30T03:55:14;13.43;;;7.25;;
69569;SDS011;56781;42.292;23.146;2022-08-30T03:57:41;13.18;;;7.65;;
69569;SDS011;56781;42.292;23.146;2022-08-30T04:00:09;14.10;;;7.72;;
69569;SDS011;56781;42.292;23.146;2022-08-30T04:02:37;15.53;;;7.97;;
69569;SDS011;56781;42.292;23.146;2022-08-30T04:05:05;15.57;;;8.50;;
69569;SDS011;56781;42.292;23.146;2022-08-30T04:07:33;14.20;;;8.15;;
69569;SDS011;56781;42.292;23.146;2022-08-30T04:10:00;13.90;;;8.10;;
69569;SDS011;56781;42.292;23.146;2022-08-30T04:12:27;16.10;;;8.35;;
69569;SDS011;56781;42.292;23.146;2022-08-30T04:14:55;18.50;;;9.10;;
69569;SDS011;56781;42.292;23.146;2022-08-30T04:17:22;20.92;;;11.13;;
69569;SDS011;56781;42.292;23.146;2022-08-30T04:19:49;20.67;;;11.27;;
69569;SDS011;56781;42.292;23.146;2022-08-30T04:22:16;18.73;;;10.63;;
69569;SDS011;56781;42.292;23.146;2022-08-30T04:24:43;22.80;;;11.90;;
69569;SDS011;56781;42.292;23.146;2022-08-30T04:27:10;20.10;;;10.17;;
69569;SDS011;56781;42.292;23.146;2022-08-30T04:29:37;19.77;;;9.40;;
69569;SDS011;56781;42.292;23.146;2022-08-30T04:32:04;19.83;;;10.43;;
69569;SDS011;56781;42.292;23.146;2022-08-30T04:34:31;14.63;;;9.02;;
69569;SDS011;56781;42.292;23.146;2022-08-30T04:36:58;16.23;;;8.90;;
69569;SDS011;56781;42.292;23.146;2022-08-30T04:39:25;18.07;;;9.57;;
69569;SDS011;56781;42.292;23.146;2022-08-30T04:41:52;13.00;;;7.15;;
69569;SDS011;56781;42.292;23.146;2022-08-30T04:44:19;18.42;;;9.05;;
69569;SDS011;56781;42.292;23.146;2022-08-30T04:46:46;12.80;;;7.78;;
69569;SDS011;56781;42.292;23.146;2022-08-30T04:49:13;16.60;;;8.10;;
69569;SDS011;56781;42.292;23.146;2022-08-30T04:51:40;13.40;;;7.47;;
69569;SDS011;56781;42.292;23.146;2022-08-30T04:54:07;14.48;;;7.90;;
69569;SDS011;56781;42.292;23.146;2022-08-30T04:56:34;13.27;;;7.70;;
69569;SDS011;56781;42.292;23.146;2022-08-30T04:59:01;13.70;;;7.82;;
69569;SDS011;56781;42.292;23.146;2022-08-30T05:01:30;13.88;;;8.20;;
69569;SDS011;56781;42.292;23.146;2022-08-30T05:04:10;15.33;;;8.40;;
69569;SDS011;56781;42.292;23.146;2022-08-30T05:06:37;13.57;;;7.93;;
69569;SDS011;56781;42.292;23.146;2022-08-30T05:09:04;15.43;;;8.05;;
69569;SDS011;56781;42.292;23.146;2022-08-30T05:11:31;14.43;;;8.07;;
69569;SDS011;56781;42.292;23.146;2022-08-30T05:13:58;18.63;;;9.30;;
69569;SDS011;56781;42.292;23.146;2022-08-30T05:16:25;17.67;;;9.03;;
69569;SDS011;56781;42.292;23.146;2022-08-30T05:18:52;16.80;;;9.25;;
69569;SDS011;56781;42.292;23.146;2022-08-30T05:21:24;16.80;;;9.48;;
69569;SDS011;56781;42.292;23.146;2022-08-30T05:23:56;19.13;;;9.80;;
69569;SDS011;56781;42.292;23.146;2022-08-30T05:26:29;15.32;;;8.82;;
69569;SDS011;56781;42.292;23.146;2022-08-30T05:28:58;17.67;;;9.53;;
69569;SDS011;56781;42.292;23.146;2022-08-30T05:31:27;15.30;;;8.27;;
69569;SDS011;56781;42.292;23.146;2022-08-30T05:33:58;18.13;;;9.00;;
69569;SDS011;56781;42.292;23.146;2022-08-30T05:36:27;15.90;;;9.00;;
69569;SDS011;56781;42.292;23.146;2022-08-30T05:38:56;14.55;;;8.13;;
69569;SDS011;56781;42.292;23.146;2022-08-30T05:41:23;15.30;;;9.10;;
69569;SDS011;56781;42.292;23.146;2022-08-30T05:43:55;16.75;;;8.88;;
69569;SDS011;56781;42.292;23.146;2022-08-30T05:46:24;13.70;;;8.30;;
69569;SDS011;56781;42.292;23.146;2022-08-30T05:48:55;17.95;;;9.10;;
69569;SDS011;56781;42.292;23.146;2022-08-30T05:51:23;14.68;;;8.80;;
69569;SDS011;56781;42.292;23.146;2022-08-30T05:53:51;15.60;;;8.77;;
69569;SDS011;56781;42.292;23.146;2022-08-30T05:56:20;15.07;;;8.82;;
69569;SDS011;56781;42.292;23.146;2022-08-30T05:58:51;14.68;;;8.65;;
69569;SDS011;56781;42.292;23.146;2022-08-30T06:03:51;17.23;;;9.38;;
69569;SDS011;56781;42.292;23.146;2022-08-30T06:06:20;14.20;;;8.80;;
69569;SDS011;56781;42.292;23.146;2022-08-30T06:08:47;18.10;;;9.63;;
69569;SDS011;56781;42.292;23.146;2022-08-30T06:11:20;15.85;;;9.13;;
69569;SDS011;56781;42.292;23.146;2022-08-30T06:13:49;16.98;;;8.30;;
69569;SDS011;56781;42.292;23.146;2022-08-30T06:16:18;18.02;;;9.45;;
69569;SDS011;56781;42.292;23.146;2022-08-30T06:18:46;16.13;;;9.33;;
69569;SDS011;56781;42.292;23.146;2022-08-30T06:21:15;17.80;;;8.88;;
69569;SDS011;56781;42.292;23.146;2022-08-30T06:23:46;16.77;;;9.70;;
69569;SDS011;56781;42.292;23.146;2022-08-30T06:26:13;15.38;;;9.15;;
69569;SDS011;56781;42.292;23.146;2022-08-30T06:28:41;16.05;;;8.77;;
69569;SDS011;56781;42.292;23.146;2022-08-30T06:31:08;16.27;;;9.50;;
69569;SDS011;56781;42.292;23.146;2022-08-30T06:33:42;15.77;;;9.25;;
69569;SDS011;56781;42.292;23.146;2022-08-30T06:36:12;14.75;;;9.00;;
69569;SDS011;56781;42.292;23.146;2022-08-30T06:38:41;16.25;;;8.93;;
69569;SDS011;56781;42.292;23.146;2022-08-30T06:41:09;16.08;;;9.48;;
69569;SDS011;56781;42.292;23.146;2022-08-30T06:43:38;15.63;;;8.50;;
69569;SDS011;56781;42.292;23.146;2022-08-30T06:46:09;16.77;;;9.48;;
69569;SDS011;56781;42.292;23.146;2022-08-30T06:48:39;19.63;;;10.15;;
69569;SDS011;56781;42.292;23.146;2022-08-30T06:51:10;16.92;;;9.57;;
69569;SDS011;56781;42.292;23.146;2022-08-30T06:53:37;14.85;;;9.13;;
69569;SDS011;56781;42.292;23.146;2022-08-30T06:56:07;15.70;;;9.03;;
69569;SDS011;56781;42.292;23.146;2022-08-30T06:58:36;21.23;;;11.18;;
69569;SDS011;56781;42.292;23.146;2022-08-30T07:01:05;17.27;;;9.95;;
69569;SDS011;56781;42.292;23.146;2022-08-30T07:03:35;18.90;;;10.32;;
69569;SDS011;56781;42.292;23.146;2022-08-30T07:06:03;17.42;;;9.73;;
69569;SDS011;56781;42.292;23.146;2022-08-30T07:08:30;16.13;;;9.20;;
69569;SDS011;56781;42.292;23.146;2022-08-30T07:10:57;16.42;;;9.75;;
69569;SDS011;56781;42.292;23.146;2022-08-30T07:13:23;14.15;;;8.07;;
69569;SDS011;56781;42.292;23.146;2022-08-30T07:15:50;16.45;;;8.93;;
69569;SDS011;56781;42.292;23.146;2022-08-30T07:18:20;14.15;;;8.27;;
69569;SDS011;56781;42.292;23.146;2022-08-30T07:21:07;15.40;;;8.60;;
69569;SDS011;56781;42.292;23.146;2022-08-30T07:23:36;10.80;;;6.95;;
69569;SDS011;56781;42.292;23.146;2022-08-30T07:26:04;13.45;;;7.80;;
69569;SDS011;56781;42.292;23.146;2022-08-30T07:28:36;12.68;;;8.00;;
69569;SDS011;56781;42.292;23.146;2022-08-30T07:31:05;10.73;;;7.30;;
69569;SDS011;56781;42.292;23.146;2022-08-30T07:33:33;12.27;;;7.97;;
69569;SDS011;56781;42.292;23.146;2022-08-30T07:36:00;12.35;;;7.55;;
69569;SDS011;56781;42.292;23.146;2022-08-30T07:38:31;12.35;;;7.90;;
69569;SDS011;56781;42.292;23.146;2022-08-30T07:40:59;12.40;;;7.40;;
69569;SDS011;56781;42.292;23.146;2022-08-30T07:43:30;12.43;;;7.88;;
69569;SDS011;56781;42.292;23.146;2022-08-30T07:46:02;14.07;;;7.53;;
69569;SDS011;56781;42.292;23.146;2022-08-30T07:48:31;13.93;;;8.13;;
69569;SDS011;56781;42.292;23.146;2022-08-30T07:51:00;16.02;;;9.40;;
69569;SDS011;56781;42.292;23.146;2022-08-30T07:53:30;15.10;;;8.38;;
69569;SDS011;56781;42.292;23.146;2022-08-30T07:55:58;14.02;;;8.30;;
69569;SDS011;56781;42.292;23.146;2022-08-30T07:58:30;14.53;;;8.77;;
69569;SDS011;56781;42.292;23.146;2022-08-30T08:00:57;14.45;;;8.25;;
69569;SDS011;56781;42.292;23.146;2022-08-30T08:03:25;13.95;;;8.70;;
69569;SDS011;56781;42.292;23.146;2022-08-30T08:05:52;13.23;;;8.15;;
69569;SDS011;56781;42.292;23.146;2022-08-30T08:08:31;13.30;;;8.68;;
69569;SDS011;56781;42.292;23.146;2022-08-30T08:11:09;12.63;;;7.90;;
69569;SDS011;56781;42.292;23.146;2022-08-30T08:13:59;11.45;;;7.88;;
69569;SDS011;56781;42.292;23.146;2022-08-30T08:16:27;11.68;;;7.60;;
69569;SDS011;56781;42.292;23.146;2022-08-30T08:18:55;10.52;;;6.90;;
69569;SDS011;56781;42.292;23.146;2022-08-30T08:21:25;11.10;;;6.78;;
69569;SDS011;56781;42.292;23.146;2022-08-30T08:23:54;11.53;;;7.20;;
69569;SDS011;56781;42.292;23.146;2022-08-30T08:26:21;9.85;;;6.90;;
69569;SDS011;56781;42.292;23.146;2022-08-30T08:28:48;10.93;;;6.72;;
69569;SDS011;56781;42.292;23.146;2022-08-30T08:31:20;10.55;;;6.38;;
69569;SDS011;56781;42.292;23.146;2022-08-30T08:33:58;9.02;;;5.88;;
69569;SDS011;56781;42.292;23.146;2022-08-30T08:36:26;10.43;;;6.10;;
69569;SDS011;56781;42.292;23.146;2022-08-30T08:38:57;10.70;;;6.68;;
69569;SDS011;56781;42.292;23.146;2022-08-30T08:41:38;13.75;;;7.85;;
69569;SDS011;56781;42.292;23.146;2022-08-30T08:44:13;12.10;;;7.70;;
69569;SDS011;56781;42.292;23.146;2022-08-30T08:49:58;15.40;;;8.10;;
69569;SDS011;56781;42.292;23.146;2022-08-30T08:52:51;11.50;;;7.28;;
69569;SDS011;56781;42.292;23.146;2022-08-30T08:55:55;12.23;;;7.35;;
69569;SDS011;56781;42.292;23.146;2022-08-30T08:58:27;13.15;;;8.20;;
69569;SDS011;56781;42.292;23.146;2022-08-30T09:00:59;13.07;;;8.00;;
69569;SDS011;56781;42.292;23.146;2022-08-30T09:03:31;14.43;;;7.57;;
69569;SDS011;56781;42.292;23.146;2022-08-30T09:05:58;11.95;;;7.35;;
69569;SDS011;56781;42.292;23.146;2022-08-30T09:08:29;12.00;;;7.50;;
69569;SDS011;56781;42.292;23.146;2022-08-30T09:11:02;12.60;;;7.60;;
69569;SDS011;56781;42.292;23.146;2022-08-30T09:13:32;13.23;;;8.05;;
69569;SDS011;56781;42.292;23.146;2022-08-30T09:15:59;15.70;;;8.90;;
69569;SDS011;56781;42.292;23.146;2022-08-30T09:18:45;13.20;;;8.40;;
69569;SDS011;56781;42.292;23.146;2022-08-30T09:21:21;13.23;;;7.78;;
69569;SDS011;56781;42.292;23.146;2022-08-30T09:23:57;14.05;;;7.88;;
69569;SDS011;56781;42.292;23.146;2022-08-30T09:26:31;13.73;;;7.90;;
69569;SDS011;56781;42.292;23.146;2022-08-30T09:29:02;16.17;;;8.50;;
69569;SDS011;56781;42.292;23.146;2022-08-30T09:31:31;12.73;;;7.90;;
69569;SDS011;56781;42.292;23.146;2022-08-30T09:34:39;17.13;;;8.65;;
69569;SDS011;56781;42.292;23.146;2022-08-30T09:37:09;12.00;;;7.45;;
69569;SDS011;56781;42.292;23.146;2022-08-30T09:39:53;12.80;;;7.97;;
69569;SDS011;56781;42.292;23.146;2022-08-30T09:42:22;13.63;;;8.20;;
69569;SDS011;56781;42.292;23.146;2022-08-30T09:44:52;14.10;;;8.35;;
69569;SDS011;56781;42.292;23.146;2022-08-30T09:47:37;14.88;;;7.93;;
69569;SDS011;56781;42.292;23.146;2022-08-30T09:50:08;18.50;;;9.38;;
69569;SDS011;56781;42.292;23.146;2022-08-30T09:52:55;15.13;;;9.05;;
69569;SDS011;56781;42.292;23.146;2022-08-30T09:58:02;17.35;;;9.18;;
69569;SDS011;56781;42.292;23.146;2022-08-30T10:01:40;14.20;;;8.57;;
69569;SDS011;56781;42.292;23.146;2022-08-30T10:03:55;15.18;;;8.65;;
69569;SDS011;56781;42.292;23.146;2022-08-30T10:07:03;16.15;;;8.57;;
69569;SDS011;56781;42.292;23.146;2022-08-30T10:09:37;14.07;;;8.10;;
69569;SDS011;56781;42.292;23.146;2022-08-30T10:17:32;14.88;;;8.38;;
69569;SDS011;56781;42.292;23.146;2022-08-30T10:23:11;13.87;;;8.20;;
69569;SDS011;56781;42.292;23.146;2022-08-30T10:25:54;16.67;;;8.88;;
69569;SDS011;56781;42.292;23.146;2022-08-30T10:28:34;14.77;;;9.00;;
69569;SDS011;56781;42.292;23.146;2022-08-30T10:31:10;15.10;;;8.60;;
69569;SDS011;56781;42.292;23.146;2022-08-30T10:33:57;17.45;;;8.95;;
69569;SDS011;56781;42.292;23.146;2022-08-30T10:36:34;15.33;;;8.43;;
69569;SDS011;56781;42.292;23.146;2022-08-30T10:39:11;15.93;;;8.45;;
69569;SDS011;56781;42.292;23.146;2022-08-30T10:41:43;14.95;;;8.90;;
69569;SDS011;56781;42.292;23.146;2022-08-30T10:49:24;17.17;;;9.17;;
69569;SDS011;56781;42.292;23.146;2022-08-30T10:54:50;14.88;;;8.55;;
69569;SDS011;56781;42.292;23.146;2022-08-30T10:57:20;14.57;;;8.43;;
69569;SDS011;56781;42.292;23.146;2022-08-30T10:59:53;18.40;;;8.40;;
69569;SDS011;56781;42.292;23.146;2022-08-30T11:02:50;15.43;;;7.70;;
69569;SDS011;56781;42.292;23.146;2022-08-30T11:13:45;16.50;;;8.25;;
69569;SDS011;56781;42.292;23.146;2022-08-30T11:16:32;12.70;;;7.73;;
69569;SDS011;56781;42.292;23.146;2022-08-30T11:19:02;13.50;;;7.20;;
69569;SDS011;56781;42.292;23.146;2022-08-30T11:21:44;9.27;;;5.13;;
69569;SDS011;56781;42.292;23.146;2022-08-30T11:24:12;10.80;;;5.82;;
69569;SDS011;56781;42.292;23.146;2022-08-30T11:31:56;9.95;;;4.82;;
69569;SDS011;56781;42.292;23.146;2022-08-30T11:40:08;9.10;;;4.70;;
69569;SDS011;56781;42.292;23.146;2022-08-30T11:42:46;7.13;;;4.50;;
69569;SDS011;56781;42.292;23.146;2022-08-30T11:48:07;10.15;;;5.25;;
69569;SDS011;56781;42.292;23.146;2022-08-30T11:50:59;8.13;;;4.75;;
69569;SDS011;56781;42.292;23.146;2022-08-30T11:53:40;9.95;;;5.30;;
69569;SDS011;56781;42.292;23.146;2022-08-30T12:02:44;10.30;;;6.13;;
69569;SDS011;56781;42.292;23.146;2022-08-30T12:08:07;14.43;;;7.38;;
69569;SDS011;56781;42.292;23.146;2022-08-30T12:10:55;12.33;;;6.70;;
69569;SDS011;56781;42.292;23.146;2022-08-30T12:23:57;11.87;;;7.33;;
69569;SDS011;56781;42.292;23.146;2022-08-30T12:26:40;16.48;;;8.60;;
69569;SDS011;56781;42.292;23.146;2022-08-30T12:29:24;13.90;;;8.15;;
69569;SDS011;56781;42.292;23.146;2022-08-30T12:32:05;15.65;;;7.57;;
69569;SDS011;56781;42.292;23.146;2022-08-30T12:37:24;13.10;;;7.57;;
69569;SDS011;56781;42.292;23.146;2022-08-30T12:42:40;12.52;;;7.63;;
69569;SDS011;56781;42.292;23.146;2022-08-30T12:45:19;11.88;;;6.90;;
69569;SDS011;56781;42.292;23.146;2022-08-30T12:47:59;12.35;;;7.28;;
69569;SDS011;56781;42.292;23.146;2022-08-30T12:50:34;14.97;;;7.57;;
69569;SDS011;56781;42.292;23.146;2022-08-30T12:53:11;13.23;;;7.22;;
69569;SDS011;56781;42.292;23.146;2022-08-30T12:55:50;13.30;;;7.53;;
69569;SDS011;56781;42.292;23.146;2022-08-30T12:58:33;12.50;;;7.57;;
69569;SDS011;56781;42.292;23.146;2022-08-30T13:06:35;12.07;;;6.65;;
69569;SDS011;56781;42.292;23.146;2022-08-30T13:09:22;12.32;;;7.15;;
69569;SDS011;56781;42.292;23.146;2022-08-30T13:11:58;12.80;;;7.38;;
69569;SDS011;56781;42.292;23.146;2022-08-30T13:14:33;13.75;;;8.25;;
69569;SDS011;56781;42.292;23.146;2022-08-30T13:17:18;11.17;;;6.43;;
69569;SDS011;56781;42.292;23.146;2022-08-30T13:22:32;11.38;;;6.70;;
69569;SDS011;56781;42.292;23.146;2022-08-30T13:25:05;13.73;;;7.28;;
69569;SDS011;56781;42.292;23.146;2022-08-30T13:27:36;11.30;;;6.43;;
69569;SDS011;56781;42.292;23.146;2022-08-30T13:30:06;11.30;;;6.40;;
69569;SDS011;56781;42.292;23.146;2022-08-30T13:32:39;10.95;;;6.40;;
69569;SDS011;56781;42.292;23.146;2022-08-30T13:35:08;11.07;;;6.70;;
69569;SDS011;56781;42.292;23.146;2022-08-30T13:37:36;12.25;;;6.68;;
69569;SDS011;56781;42.292;23.146;2022-08-30T13:40:17;10.75;;;6.80;;
69569;SDS011;56781;42.292;23.146;2022-08-30T13:42:45;12.00;;;6.50;;
69569;SDS011;56781;42.292;23.146;2022-08-30T13:45:23;12.68;;;6.40;;
69569;SDS011;56781;42.292;23.146;2022-08-30T13:48:07;15.25;;;6.78;;
69569;SDS011;56781;42.292;23.146;2022-08-30T13:50:36;10.70;;;6.40;;
69569;SDS011;56781;42.292;23.146;2022-08-30T13:53:03;12.20;;;6.82;;
69569;SDS011;56781;42.292;23.146;2022-08-30T13:55:32;14.07;;;6.87;;
69569;SDS011;56781;42.292;23.146;2022-08-30T13:57:59;11.57;;;7.05;;
69569;SDS011;56781;42.292;23.146;2022-08-30T14:00:26;14.57;;;8.15;;
69569;SDS011;56781;42.292;23.146;2022-08-30T14:03:00;13.73;;;7.82;;
69569;SDS011;56781;42.292;23.146;2022-08-30T14:05:29;13.52;;;6.57;;
69569;SDS011;56781;42.292;23.146;2022-08-30T14:08:22;13.00;;;6.23;;
69569;SDS011;56781;42.292;23.146;2022-08-30T14:11:11;15.35;;;6.85;;
69569;SDS011;56781;42.292;23.146;2022-08-30T14:13:44;12.25;;;6.97;;
69569;SDS011;56781;42.292;23.146;2022-08-30T14:16:32;13.52;;;7.10;;
69569;SDS011;56781;42.292;23.146;2022-08-30T14:19:00;11.20;;;6.40;;
69569;SDS011;56781;42.292;23.146;2022-08-30T14:21:32;14.47;;;7.67;;
69569;SDS011;56781;42.292;23.146;2022-08-30T14:24:00;11.32;;;6.72;;
69569;SDS011;56781;42.292;23.146;2022-08-30T14:26:33;11.40;;;6.38;;
69569;SDS011;56781;42.292;23.146;2022-08-30T14:29:06;12.88;;;6.63;;
69569;SDS011;56781;42.292;23.146;2022-08-30T14:31:36;15.48;;;6.78;;
69569;SDS011;56781;42.292;23.146;2022-08-30T14:34:04;12.07;;;7.23;;
69569;SDS011;56781;42.292;23.146;2022-08-30T14:36:37;12.32;;;6.78;;
69569;SDS011;56781;42.292;23.146;2022-08-30T14:39:08;11.30;;;6.60;;
69569;SDS011;56781;42.292;23.146;2022-08-30T14:41:45;11.48;;;6.53;;
69569;SDS011;56781;42.292;23.146;2022-08-30T14:44:17;15.85;;;7.05;;
69569;SDS011;56781;42.292;23.146;2022-08-30T14:46:46;12.43;;;6.80;;
69569;SDS011;56781;42.292;23.146;2022-08-30T14:49:14;11.73;;;6.25;;
69569;SDS011;56781;42.292;23.146;2022-08-30T14:51:42;12.88;;;7.22;;
69569;SDS011;56781;42.292;23.146;2022-08-30T14:54:11;10.98;;;6.38;;
69569;SDS011;56781;42.292;23.146;2022-08-30T14:56:39;11.77;;;6.65;;
69569;SDS011;56781;42.292;23.146;2022-08-30T14:59:08;13.63;;;7.17;;
69569;SDS011;56781;42.292;23.146;2022-08-30T15:01:38;12.70;;;7.13;;
69569;SDS011;56781;42.292;23.146;2022-08-30T15:04:11;12.45;;;7.05;;
69569;SDS011;56781;42.292;23.146;2022-08-30T15:06:39;13.13;;;7.00;;
69569;SDS011;56781;42.292;23.146;2022-08-30T15:09:10;13.25;;;7.13;;
69569;SDS011;56781;42.292;23.146;2022-08-30T15:11:40;12.97;;;7.13;;
69569;SDS011;56781;42.292;23.146;2022-08-30T15:14:12;12.27;;;7.00;;
69569;SDS011;56781;42.292;23.146;2022-08-30T15:16:57;12.75;;;6.80;;
69569;SDS011;56781;42.292;23.146;2022-08-30T15:19:28;11.05;;;6.25;;
69569;SDS011;56781;42.292;23.146;2022-08-30T15:22:00;10.90;;;6.28;;
69569;SDS011;56781;42.292;23.146;2022-08-30T15:24:29;10.73;;;6.47;;
69569;SDS011;56781;42.292;23.146;2022-08-30T15:26:59;13.27;;;6.15;;
69569;SDS011;56781;42.292;23.146;2022-08-30T15:29:27;12.10;;;6.93;;
69569;SDS011;56781;42.292;23.146;2022-08-30T15:31:56;11.27;;;7.10;;
69569;SDS011;56781;42.292;23.146;2022-08-30T15:34:24;11.15;;;7.07;;
69569;SDS011;56781;42.292;23.146;2022-08-30T15:36:54;12.27;;;6.30;;
69569;SDS011;56781;42.292;23.146;2022-08-30T15:39:22;10.73;;;6.40;;
69569;SDS011;56781;42.292;23.146;2022-08-30T15:41:50;11.20;;;6.93;;
69569;SDS011;56781;42.292;23.146;2022-08-30T15:44:22;12.52;;;6.63;;
69569;SDS011;56781;42.292;23.146;2022-08-30T15:46:49;12.10;;;7.13;;
69569;SDS011;56781;42.292;23.146;2022-08-30T15:49:17;12.10;;;6.97;;
69569;SDS011;56781;42.292;23.146;2022-08-30T15:51:46;11.40;;;6.45;;
69569;SDS011;56781;42.292;23.146;2022-08-30T15:54:18;11.70;;;6.90;;
69569;SDS011;56781;42.292;23.146;2022-08-30T15:56:56;14.50;;;7.72;;
69569;SDS011;56781;42.292;23.146;2022-08-30T15:59:27;14.18;;;7.05;;
69569;SDS011;56781;42.292;23.146;2022-08-30T16:02:05;11.87;;;6.70;;
69569;SDS011;56781;42.292;23.146;2022-08-30T16:04:33;13.32;;;7.25;;
69569;SDS011;56781;42.292;23.146;2022-08-30T16:07:03;12.85;;;7.13;;
69569;SDS011;56781;42.292;23.146;2022-08-30T16:09:32;13.18;;;7.80;;